createdAt,value
2022-09-07T00:00:50.308Z,101565.41
2022-09-07T00:03:18.143Z,101566.31
2022-09-07T00:05:47.748Z,101561.13
2022-09-07T00:08:17.214Z,101574.25
2022-09-07T00:11:04.068Z,101571.63
2022-09-07T00:13:35.853Z,101576.91
2022-09-07T00:16:31.151Z,101581.28
2022-09-07T00:19:02.165Z,101577.78
2022-09-07T00:21:29.430Z,101572.53
2022-09-07T00:23:57.084Z,101573.41
2022-09-07T00:26:28.507Z,101576.91
2022-09-07T00:29:03.455Z,101576.09
2022-09-07T00:31:31.737Z,101583.97
2022-09-07T00:34:01.026Z,101590.97
2022-09-07T00:36:28.403Z,101584.84
2022-09-07T00:38:55.583Z,101570.81
2022-09-07T00:41:23.243Z,101569.09
2022-09-07T00:43:54.345Z,101577.00
2022-09-07T00:46:28.032Z,101571.72
2022-09-07T00:49:16.449Z,101569.13
2022-09-07T00:51:55.642Z,101567.41
2022-09-07T00:54:28.738Z,101563.91
2022-09-07T00:56:55.779Z,101557.81
2022-09-07T00:59:27.706Z,101555.13
2022-09-07T01:01:54.866Z,101546.38
2022-09-07T01:04:22.954Z,101546.38
2022-09-07T01:06:50.574Z,101542.03
2022-09-07T01:09:22.862Z,101542.00
2022-09-07T01:11:51.718Z,101539.41
2022-09-07T01:14:27.585Z,101541.19
2022-09-07T01:17:08.276Z,101535.91
2022-09-07T01:20:11.736Z,101533.31
2022-09-07T01:23:37.600Z,101532.47
2022-09-07T01:26:34.534Z,101527.22
2022-09-07T01:29:35.914Z,101534.25
2022-09-07T01:32:26.143Z,101526.41
2022-09-07T01:34:53.852Z,101526.38
2022-09-07T01:37:44.043Z,101529.88
2022-09-07T01:40:32.049Z,101525.53
2022-09-07T01:43:10.281Z,101533.38
2022-09-07T01:45:41.316Z,101529.03
2022-09-07T01:48:13.960Z,101533.41
2022-09-07T01:50:55.044Z,101536.94
2022-09-07T01:53:51.540Z,101531.69
2022-09-07T01:56:35.120Z,101540.44
2022-09-07T01:59:16.117Z,101533.47
2022-09-07T02:02:09.649Z,101541.38
2022-09-07T02:04:47.706Z,101552.72
2022-09-07T02:07:25.857Z,101543.97
2022-09-07T02:09:59.725Z,101541.38
2022-09-07T02:12:52.448Z,101556.25
2022-09-07T02:15:27.613Z,101554.53
2022-09-07T02:18:01.419Z,101546.63
2022-09-07T02:20:37.357Z,101555.41
2022-09-07T02:23:14.236Z,101558.06
2022-09-07T02:25:53.556Z,101556.28
2022-09-07T02:28:29.955Z,101547.53
2022-09-07T02:30:57.006Z,101545.81
2022-09-07T02:33:24.083Z,101551.03
2022-09-07T02:35:51.892Z,101545.81
2022-09-07T02:38:19.670Z,101545.81
2022-09-07T02:40:56.843Z,101544.94
2022-09-07T02:43:25.805Z,101534.44
2022-09-07T02:46:28.753Z,101527.47
2022-09-07T02:49:39.254Z,101520.47
2022-09-07T02:52:43.971Z,101517.00
2022-09-07T02:55:35.249Z,101507.38
2022-09-07T02:58:35.567Z,101510.88
2022-09-07T03:01:39.307Z,101515.25
2022-09-07T03:04:22.985Z,101520.50
2022-09-07T03:07:03.809Z,101511.75
2022-09-07T03:09:37.713Z,101515.25
2022-09-07T03:12:05.491Z,101503.88
2022-09-07T03:14:33.748Z,101502.09
2022-09-07T03:17:01.335Z,101502.09
2022-09-07T03:19:28.251Z,101499.47
2022-09-07T03:21:55.163Z,101499.47
2022-09-07T03:24:22.073Z,101499.50
2022-09-07T03:26:49.377Z,101500.34
2022-09-07T03:29:16.332Z,101501.22
2022-09-07T03:31:43.326Z,101491.63
2022-09-07T03:34:10.799Z,101493.34
2022-09-07T03:36:37.992Z,101481.97
2022-09-07T03:39:07.260Z,101482.88
2022-09-07T03:41:34.352Z,101478.50
2022-09-07T03:44:05.713Z,101481.13
2022-09-07T03:46:33.708Z,101482.00
2022-09-07T03:49:00.661Z,101481.13
2022-09-07T03:51:27.587Z,101485.50
2022-09-07T03:53:55.146Z,101482.00
2022-09-07T03:56:24.379Z,101478.53
2022-09-07T03:58:53.446Z,101461.91
2022-09-07T04:01:23.318Z,101463.66
2022-09-07T04:03:50.829Z,101461.00
2022-09-07T04:06:19.490Z,101461.91
2022-09-07T04:08:46.730Z,101462.75
2022-09-07T04:11:17.735Z,101461.03
2022-09-07T04:13:45.551Z,101458.38
2022-09-07T04:16:14.437Z,101471.50
2022-09-07T04:18:41.875Z,101461.03
2022-09-07T04:21:09.157Z,101457.53
2022-09-07T04:23:39.430Z,101452.25
2022-09-07T04:26:06.629Z,101455.78
2022-09-07T04:28:33.583Z,101462.75
2022-09-07T04:31:02.147Z,101461.91
2022-09-07T04:33:32.731Z,101444.38
2022-09-07T04:36:01.314Z,101442.66
2022-09-07T04:38:29.015Z,101434.78
2022-09-07T04:41:01.281Z,101426.03
2022-09-07T04:43:29.780Z,101430.41
2022-09-07T04:45:56.908Z,101426.97
2022-09-07T04:48:24.162Z,101431.31
2022-09-07T04:50:52.257Z,101433.91
2022-09-07T04:53:19.765Z,101434.78
2022-09-07T04:55:46.689Z,101433.03
2022-09-07T04:58:13.635Z,101419.94
2022-09-07T05:00:40.557Z,101427.78
2022-09-07T05:03:07.551Z,101438.28
2022-09-07T05:05:37.874Z,101433.91
2022-09-07T05:08:04.820Z,101430.41
2022-09-07T05:10:31.783Z,101432.16
2022-09-07T05:12:59.024Z,101428.63
2022-09-07T05:15:27.982Z,101421.63
2022-09-07T05:17:54.874Z,101427.75
2022-09-07T05:20:21.969Z,101436.47
2022-09-07T05:22:48.873Z,101427.69
2022-09-07T05:25:15.801Z,101436.41
2022-09-07T05:27:42.751Z,101433.75
2022-09-07T05:32:57.456Z,101426.69
2022-09-07T05:35:24.387Z,101432.78
2022-09-07T05:37:51.406Z,101425.75
2022-09-07T05:40:18.403Z,101426.59
2022-09-07T05:42:45.394Z,101431.81
2022-09-07T05:45:12.506Z,101434.44
2022-09-07T05:47:39.441Z,101430.84
2022-09-07T05:50:08.958Z,101426.44
2022-09-07T05:52:36.556Z,101435.16
2022-09-07T05:55:19.617Z,101423.72
2022-09-07T05:57:50.717Z,101422.75
2022-09-07T06:00:17.618Z,101428.84
2022-09-07T06:02:44.732Z,101426.13
2022-09-07T06:05:11.655Z,101426.09
2022-09-07T06:07:38.907Z,101430.47
2022-09-07T06:12:56.406Z,101422.56
2022-09-07T06:15:23.284Z,101416.41
2022-09-07T06:17:50.195Z,101414.59
2022-09-07T06:20:17.101Z,101416.28
2022-09-07T06:22:44.007Z,101420.59
2022-09-07T06:25:10.893Z,101430.13
2022-09-07T06:27:37.791Z,101430.00
2022-09-07T06:30:05.395Z,101433.44
2022-09-07T06:32:47.589Z,101427.25
2022-09-07T06:35:15.583Z,101421.09
2022-09-07T06:37:42.852Z,101423.69
2022-09-07T06:40:11.542Z,101418.38
2022-09-07T06:42:39.188Z,101414.78
2022-09-07T06:45:06.915Z,101416.44
2022-09-07T06:47:33.871Z,101419.88
2022-09-07T06:50:01.453Z,101416.28
2022-09-07T06:52:28.491Z,101418.88
2022-09-07T06:54:59.149Z,101413.50
2022-09-07T06:57:27.107Z,101413.38
2022-09-07T06:59:54.100Z,101412.47
2022-09-07T07:02:21.021Z,101415.00
2022-09-07T07:04:47.987Z,101423.69
2022-09-07T07:07:15.167Z,101421.84
2022-09-07T07:09:42.503Z,101427.94
2022-09-07T07:12:10.785Z,101422.59
2022-09-07T07:14:40.937Z,101437.41
2022-09-07T07:17:09.755Z,101433.84
2022-09-07T07:19:36.654Z,101439.84
2022-09-07T07:22:45.088Z,101437.06
2022-09-07T07:24:50.487Z,101433.41
2022-09-07T07:27:17.573Z,101435.03
2022-09-07T07:29:45.771Z,101433.19
2022-09-07T07:32:12.662Z,101434.81
2022-09-07T07:34:39.517Z,101425.91
2022-09-07T07:37:06.395Z,101410.78
2022-09-07T07:42:21.226Z,101420.97
2022-09-07T07:44:48.715Z,101411.91
2022-09-07T07:47:15.699Z,101408.16
2022-09-07T07:49:42.553Z,101411.50
2022-09-07T07:54:56.257Z,101403.41
2022-09-07T07:57:23.171Z,101400.84
2022-09-07T07:59:50.030Z,101395.50
2022-09-07T08:02:17.380Z,101399.75
2022-09-07T08:04:44.445Z,101381.25
2022-09-07T08:07:15.706Z,101391.66
2022-09-07T08:09:45.626Z,101380.13
2022-09-07T08:12:16.689Z,101382.59
2022-09-07T08:14:43.613Z,101384.22
2022-09-07T08:17:16.533Z,101387.56
2022-09-07T08:19:43.685Z,101397.94
2022-09-07T08:22:12.032Z,101395.00
2022-09-07T08:24:39.094Z,101394.78
2022-09-07T08:27:05.967Z,101390.19
2022-09-07T08:29:35.168Z,101390.00
2022-09-07T08:32:06.732Z,101395.94
2022-09-07T08:34:37.223Z,101401.84
2022-09-07T08:37:04.511Z,101402.50
2022-09-07T08:39:31.727Z,101400.50
2022-09-07T08:42:29.456Z,101406.56
2022-09-07T08:45:06.923Z,101405.50
2022-09-07T08:47:43.320Z,101396.44
2022-09-07T08:50:46.119Z,101394.31
2022-09-07T08:53:16.787Z,101393.16
2022-09-07T08:55:49.404Z,101392.00
2022-09-07T08:58:49.285Z,101380.22
2022-09-07T09:01:31.943Z,101379.13
2022-09-07T09:07:26.725Z,101382.25
2022-09-07T09:10:20.354Z,101380.13
2022-09-07T09:13:15.067Z,101376.44
2022-09-07T09:16:00.750Z,101379.59
2022-09-07T09:18:56.379Z,101387.31
2022-09-07T09:21:23.276Z,101388.75
2022-09-07T09:23:53.750Z,101392.00
2022-09-07T09:26:25.908Z,101393.44
2022-09-07T09:28:53.169Z,101395.72
2022-09-07T09:31:28.945Z,101393.63
2022-09-07T09:34:12.534Z,101387.03
2022-09-07T09:36:48.978Z,101379.66
2022-09-07T09:39:44.441Z,101369.69
2022-09-07T09:42:24.123Z,101368.59
2022-09-07T09:44:51.760Z,101362.19
2022-09-07T09:47:35.871Z,101362.84
2022-09-07T09:52:28.972Z,101343.09
2022-09-07T09:53:06.978Z,101332.41
2022-09-07T09:55:37.177Z,101321.84
2022-09-07T10:01:24.046Z,101314.44
2022-09-07T10:06:21.746Z,101328.44
2022-09-07T10:08:58.486Z,101335.31
2022-09-07T10:14:42.688Z,101336.28
2022-09-07T10:17:31.417Z,101329.56
2022-09-07T10:20:13.070Z,101333.41
2022-09-07T10:22:40.798Z,101333.91
2022-09-07T10:25:28.308Z,101328.16
2022-09-07T10:28:11.310Z,101321.53
2022-09-07T10:31:11.136Z,101318.31
2022-09-07T10:34:26.474Z,101312.53
2022-09-07T10:37:04.851Z,101318.38
2022-09-07T10:40:04.374Z,101316.28
2022-09-07T10:42:36.031Z,101308.00
2022-09-07T10:45:20.774Z,101313.00
2022-09-07T10:48:03.364Z,101302.88
2022-09-07T10:50:47.773Z,101297.06
2022-09-07T10:53:43.244Z,101304.59
2022-09-07T10:56:19.296Z,101302.34
2022-09-07T11:00:07.468Z,101294.97
2022-09-07T11:02:41.069Z,101287.50
2022-09-07T11:05:47.088Z,101287.16
2022-09-07T11:12:02.025Z,101281.03
2022-09-07T11:14:40.863Z,101269.84
2022-09-07T11:17:21.926Z,101268.72
2022-09-07T11:20:04.507Z,101268.34
2022-09-07T11:22:42.124Z,101264.44
2022-09-07T11:25:34.574Z,101257.22
2022-09-07T11:28:24.225Z,101247.72
2022-09-07T11:31:00.487Z,101256.09
2022-09-07T11:33:36.906Z,101252.31
2022-09-07T11:36:12.774Z,101252.97
2022-09-07T11:38:57.914Z,101253.97
2022-09-07T11:41:32.078Z,101257.38
2022-09-07T11:44:23.826Z,101268.75
2022-09-07T11:47:10.007Z,101267.16
2022-09-07T11:49:36.877Z,101278.16
2022-09-07T11:52:33.656Z,101281.53
2022-09-07T11:55:20.589Z,101278.47
2022-09-07T11:58:16.128Z,101292.31
2022-09-07T12:01:20.449Z,101295.50
2022-09-07T12:04:24.820Z,101288.06
2022-09-07T12:07:29.206Z,101284.31
2022-09-07T12:10:25.720Z,101273.44
2022-09-07T12:13:10.751Z,101273.97
2022-09-07T12:16:28.584Z,101278.13
2022-09-07T12:19:18.903Z,101287.69
2022-09-07T12:21:57.693Z,101285.72
2022-09-07T12:24:45.933Z,101280.47
2022-09-07T12:27:21.921Z,101282.75
2022-09-07T12:29:50.210Z,101275.53
2022-09-07T12:32:56.923Z,101278.19
2022-09-07T12:35:29.915Z,101289.66
2022-09-07T12:37:57.820Z,101285.00
2022-09-07T12:40:30.261Z,101283.19
2022-09-07T12:43:15.379Z,101289.50
2022-09-07T12:45:42.336Z,101277.94
2022-09-07T12:48:15.548Z,101277.16
2022-09-07T12:51:03.332Z,101268.53
2022-09-07T12:53:42.524Z,101269.56
2022-09-07T12:56:47.089Z,101267.03
2022-09-07T12:59:57.523Z,101270.66
2022-09-07T13:03:49.560Z,101279.53
2022-09-07T13:09:36.685Z,101285.66
2022-09-07T13:15:41.079Z,101291.72
2022-09-07T13:18:26.877Z,101285.25
2022-09-07T13:21:09.061Z,101287.91
2022-09-07T13:23:43.018Z,101286.03
2022-09-07T13:27:03.786Z,101278.97
2022-09-07T13:29:48.540Z,101277.16
2022-09-07T13:35:21.524Z,101256.66
2022-09-07T13:38:01.285Z,101233.66
2022-09-07T13:40:40.422Z,101233.59
2022-09-07T13:43:19.379Z,101232.78
2022-09-07T13:46:02.016Z,101212.53
2022-09-07T13:48:36.727Z,101215.13
2022-09-07T13:51:10.395Z,101218.91
2022-09-07T13:53:56.164Z,101216.47
2022-09-07T13:57:03.959Z,101225.06
2022-09-07T13:59:34.839Z,101219.09
2022-09-07T14:02:02.569Z,101227.31
2022-09-07T14:04:40.343Z,101231.97
2022-09-07T14:07:17.390Z,101225.03
2022-09-07T14:09:44.357Z,101224.19
2022-09-07T14:12:15.891Z,101205.28
2022-09-07T14:14:42.754Z,101227.09
2022-09-07T14:17:19.639Z,101234.41
2022-09-07T14:19:49.885Z,101224.81
2022-09-07T14:22:19.253Z,101229.44
2022-09-07T14:24:58.298Z,101217.38
2022-09-07T14:27:41.652Z,101217.66
2022-09-07T14:30:29.552Z,101210.91
2022-09-07T14:33:11.255Z,101200.72
2022-09-07T14:35:39.903Z,101202.84
2022-09-07T14:41:16.017Z,101192.75
2022-09-07T14:43:53.287Z,101179.56
2022-09-07T14:46:29.893Z,101159.56
2022-09-07T14:49:01.551Z,101151.81
2022-09-07T14:51:36.415Z,101133.53
2022-09-07T14:54:08.210Z,101145.06
2022-09-07T14:56:41.007Z,101144.34
2022-09-07T14:59:47.659Z,101137.50
2022-09-07T15:02:24.335Z,101149.97
2022-09-07T15:05:28.300Z,101149.88
2022-09-07T15:08:02.789Z,101154.94
2022-09-07T15:10:41.329Z,101147.56
2022-09-07T15:13:34.078Z,101152.84
2022-09-07T15:16:05.236Z,101152.56
2022-09-07T15:18:55.713Z,101150.63
2022-09-07T15:21:29.881Z,101157.69
2022-09-07T15:23:58.682Z,101155.59
2022-09-07T15:29:24.454Z,101155.25
2022-09-07T15:32:01.732Z,101149.69
2022-09-07T15:34:31.358Z,101159.22
2022-09-07T15:37:00.190Z,101152.97
2022-09-07T15:39:29.766Z,101153.66
2022-09-07T15:41:57.758Z,101145.50
2022-09-07T15:44:27.885Z,101148.03
2022-09-07T15:49:49.305Z,101147.53
2022-09-07T15:52:17.622Z,101142.19
2022-09-07T15:54:44.623Z,101153.34
2022-09-07T15:59:58.515Z,101150.50
2022-09-07T16:05:12.804Z,101141.56
2022-09-07T16:10:31.154Z,101147.13
2022-09-07T16:13:02.900Z,101138.25
2022-09-07T16:15:45.749Z,101143.78
2022-09-07T16:18:17.117Z,101142.97
2022-09-07T16:20:45.304Z,101138.78
2022-09-07T16:23:15.180Z,101130.03
2022-09-07T16:25:43.737Z,101128.34
2022-09-07T16:28:10.964Z,101130.28
2022-09-07T16:30:41.415Z,101126.06
2022-09-07T16:33:08.660Z,101123.53
2022-09-07T16:35:35.575Z,101111.31
2022-09-07T16:40:50.854Z,101104.72
2022-09-07T16:43:17.905Z,101108.47
2022-09-07T16:48:34.013Z,101118.56
2022-09-07T16:51:04.988Z,101116.91
2022-09-07T16:53:35.454Z,101113.50
2022-09-07T16:56:16.924Z,101111.03
2022-09-07T16:58:47.163Z,101115.66
2022-09-07T17:01:17.054Z,101113.09
2022-09-07T17:03:44.682Z,101118.53
2022-09-07T17:06:14.156Z,101117.00
2022-09-07T17:08:42.245Z,101113.59
2022-09-07T17:11:16.114Z,101119.19
2022-09-07T17:13:43.855Z,101119.19
2022-09-07T17:16:16.066Z,101111.56
2022-09-07T17:21:36.683Z,101123.47
2022-09-07T17:24:06.290Z,101115.72
2022-09-07T17:26:33.570Z,101113.25
2022-09-07T17:29:01.097Z,101107.28
2022-09-07T17:34:19.655Z,101119.41
2022-09-07T17:36:46.884Z,101114.38
2022-09-07T17:39:14.904Z,101123.44
2022-09-07T17:41:43.802Z,101106.03
2022-09-07T17:44:10.985Z,101110.91
2022-09-07T17:46:37.903Z,101125.38
2022-09-07T17:49:06.998Z,101130.03
2022-09-07T17:51:33.943Z,101126.72
2022-09-07T17:54:03.565Z,101140.13
2022-09-07T17:56:31.582Z,101134.94
2022-09-07T18:01:46.968Z,101142.56
2022-09-07T18:04:14.459Z,101145.41
2022-09-07T18:06:41.381Z,101145.63
2022-09-07T18:09:08.372Z,101132.06
2022-09-07T18:11:51.104Z,101148.75
2022-09-07T18:14:19.102Z,101151.53
2022-09-07T18:16:50.070Z,101151.66
2022-09-07T18:19:18.370Z,101149.19
2022-09-07T18:21:45.742Z,101161.69
2022-09-07T18:24:19.453Z,101158.31
2022-09-07T18:26:50.698Z,101162.00
2022-09-07T18:29:31.056Z,101164.88
2022-09-07T18:31:58.684Z,101178.25
2022-09-07T18:34:26.197Z,101174.81
2022-09-07T18:36:53.792Z,101170.50
2022-09-07T18:39:21.811Z,101181.31
2022-09-07T18:41:48.679Z,101173.53
2022-09-07T18:47:02.636Z,101184.78
2022-09-07T18:49:29.529Z,101183.22
2022-09-07T18:54:43.238Z,101185.41
2022-09-07T18:57:10.417Z,101187.13
2022-09-07T18:59:37.293Z,101179.28
2022-09-07T19:02:06.064Z,101182.13
2022-09-07T19:07:26.042Z,101172.78
2022-09-07T19:09:55.943Z,101167.63
2022-09-07T19:12:23.834Z,101170.44
2022-09-07T19:14:50.775Z,101164.47
2022-09-07T19:17:17.873Z,101168.19
2022-09-07T19:19:44.805Z,101165.75
2022-09-07T19:22:11.668Z,101172.06
2022-09-07T19:24:38.561Z,101173.13
2022-09-07T19:27:07.109Z,101164.50
2022-09-07T19:29:34.175Z,101166.44
2022-09-07T19:32:04.129Z,101170.91
2022-09-07T19:34:42.621Z,101168.50
2022-09-07T19:37:11.816Z,101172.09
2022-09-07T19:39:39.286Z,101172.09
2022-09-07T19:42:06.943Z,101169.47
2022-09-07T19:44:33.978Z,101161.81
2022-09-07T19:47:00.981Z,101154.91
2022-09-07T19:49:28.561Z,101167.22
2022-09-07T19:51:55.642Z,101162.00
2022-09-07T19:54:22.658Z,101159.50
2022-09-07T19:56:49.539Z,101155.94
2022-09-07T19:59:19.521Z,101161.31
2022-09-07T20:01:48.267Z,101159.66
2022-09-07T20:04:20.571Z,101167.66
2022-09-07T20:06:50.053Z,101161.53
2022-09-07T20:09:19.135Z,101154.53
2022-09-07T20:11:47.751Z,101158.13
2022-09-07T20:14:16.294Z,101152.13
2022-09-07T20:16:43.429Z,101153.84
2022-09-07T20:19:17.450Z,101155.75
2022-09-07T20:21:44.419Z,101155.00
2022-09-07T20:24:12.600Z,101147.16
2022-09-07T20:26:39.657Z,101142.00
2022-09-07T20:29:26.123Z,101143.88
2022-09-07T20:31:53.910Z,101140.50
2022-09-07T20:34:21.022Z,101145.00
2022-09-07T20:36:50.268Z,101145.16
2022-09-07T20:39:17.930Z,101143.47
2022-09-07T20:41:44.935Z,101148.81
2022-09-07T20:44:11.974Z,101146.38
2022-09-07T20:46:39.139Z,101143.78
2022-09-07T20:49:06.361Z,101152.69
2022-09-07T20:51:33.411Z,101158.13
2022-09-07T20:54:00.293Z,101154.59
2022-09-07T20:56:28.795Z,101154.75
2022-09-07T20:58:59.908Z,101156.47
2022-09-07T21:01:28.383Z,101164.50
2022-09-07T21:03:58.001Z,101161.88
2022-09-07T21:06:27.067Z,101155.72
2022-09-07T21:08:56.313Z,101156.69
2022-09-07T21:11:27.411Z,101160.28
2022-09-07T21:14:08.734Z,101156.81
2022-09-07T21:16:36.429Z,101160.47
2022-09-07T21:19:07.116Z,101155.16
2022-09-07T21:21:39.193Z,101159.59
2022-09-07T21:24:09.831Z,101156.13
2022-09-07T21:26:36.700Z,101162.41
2022-09-07T21:29:05.188Z,101152.88
2022-09-07T21:31:33.717Z,101149.63
2022-09-07T21:34:02.378Z,101154.13
2022-09-07T21:36:29.710Z,101148.81
2022-09-07T21:38:56.682Z,101145.34
2022-09-07T21:41:25.236Z,101146.25
2022-09-07T21:44:00.144Z,101140.16
2022-09-07T21:46:29.259Z,101138.34
2022-09-07T21:48:58.008Z,101143.72
2022-09-07T21:51:26.337Z,101145.66
2022-09-07T21:53:55.456Z,101148.28
2022-09-07T21:56:22.875Z,101141.31
2022-09-07T21:59:01.322Z,101134.38
2022-09-07T22:01:30.423Z,101125.69
2022-09-07T22:04:01.095Z,101127.53
2022-09-07T22:06:29.178Z,101126.72
2022-09-07T22:08:56.372Z,101125.09
2022-09-07T22:11:25.234Z,101121.66
2022-09-07T22:14:01.788Z,101120.19
2022-09-07T22:16:29.970Z,101124.66
2022-09-07T22:18:57.440Z,101118.59
2022-09-07T22:21:29.304Z,101112.53
2022-09-07T22:23:59.810Z,101116.19
2022-09-07T22:26:30.101Z,101116.34
2022-09-07T22:28:58.269Z,101119.06
2022-09-07T22:31:31.501Z,101114.78
2022-09-07T22:34:00.362Z,101119.31
2022-09-07T22:36:39.863Z,101116.78
2022-09-07T22:39:12.183Z,101113.34
2022-09-07T22:41:40.061Z,101109.03
2022-09-07T22:44:13.513Z,101117.16
2022-09-07T22:46:42.954Z,101112.84
2022-09-07T22:49:13.163Z,101113.81
2022-09-07T22:51:40.375Z,101115.59
2022-09-07T22:54:07.907Z,101112.09
2022-09-07T22:56:35.128Z,101126.22
2022-09-07T22:59:05.462Z,101120.03
2022-09-07T23:01:34.023Z,101110.50
2022-09-07T23:04:01.575Z,101106.94
2022-09-07T23:06:34.636Z,101105.31
2022-09-07T23:09:08.311Z,101089.81
2022-09-07T23:11:35.451Z,101100.28
2022-09-07T23:14:05.576Z,101096.06
2022-09-07T23:16:32.530Z,101081.22
2022-09-07T23:19:00.708Z,101083.84
2022-09-07T23:21:28.254Z,101090.16
2022-09-07T23:23:58.240Z,101085.75
2022-09-07T23:26:28.772Z,101091.06
2022-09-07T23:28:59.288Z,101089.38
2022-09-07T23:31:29.188Z,101081.50
2022-09-07T23:33:57.676Z,101080.63
2022-09-07T23:36:25.483Z,101078.03
2022-09-07T23:38:55.444Z,101082.44
2022-09-07T23:41:24.040Z,101084.22
2022-09-07T23:43:52.595Z,101077.34
2022-09-07T23:46:19.948Z,101076.41
2022-09-07T23:48:48.367Z,101075.66
2022-09-07T23:51:19.919Z,101080.94
2022-09-07T23:53:49.948Z,101082.75
2022-09-07T23:56:16.822Z,101073.97
2022-09-07T23:58:43.727Z,101068.69
